Remedy — WDF4603 — position and weather

sailwx.info

Track history (hours):
 
Tides and Currents Weather Stations Pressure Air Temp Water Temp Dewpoint Dewpoint Depression Visibility Wind Speed Wind Dir Waves Ship Positions

Remedy

Owner: Paradis, Marc A, Simsbury, CT. More information available from US FCC via Universal Licensing System.

Last reported at 2018-Jan-23 14:13 UTC. Time now 2018-Feb-22 20:50 UTC.
Position N 14°24' W 060°55'.
Warning: this ship's position is 30 days out of date.

Length 15 m.

Type: Pleasure craft. MMSI: 367453740.

Date/timePositionNaut miles runAvg speedWind from/ knotsBaromVisibWave heightAir tempDewpointWater temp
2018-Jan-23 14:13N 14°24' W 060°55'2 7.7
2018-Jan-23 14:00N 14°25' W 060°54'2 3.3
2018-Jan-23 13:30N 14°27' W 060°54'1 0.0
2018-Jan-21 23:45N 14°28' W 060°53'0 0.0
2018-Jan-21 23:30N 14°28' W 060°53'0 0.0
2018-Jan-21 23:00N 14°28' W 060°53'0 0.0
2018-Jan-21 22:30N 14°28' W 060°53'1 1.2
2018-Jan-21 21:25N 14°26' W 060°53'0 0.2
2018-Jan-21 20:59N 14°27' W 060°53'1 3.0
2018-Jan-21 20:30N 14°28' W 060°52'0 0.6
2018-Jan-21 19:55N 14°28' W 060°52'2 4.3
2018-Jan-21 19:30N 14°27' W 060°54'1 2.6
2018-Jan-21 19:00N 14°26' W 060°55'  
Track history (hours):
 
Tides and Currents Weather Stations Pressure Air Temp Water Temp Dewpoint Dewpoint Depression Visibility Wind Speed Wind Dir Waves Ship Positions

Remedy

Owner: Paradis, Marc A, Simsbury, CT. More information available from US FCC via Universal Licensing System.

Last reported at 2018-Jan-23 14:13 UTC. Time now 2018-Feb-22 20:50 UTC.
Position N 14°24' W 060°55'.
Warning: this ship's position is 30 days out of date.

Length 15 m.

Type: Pleasure craft. MMSI: 367453740.

Date/timePositionNaut miles runAvg speedWind from/ knotsBaromVisibWave heightAir tempDewpointWater temp
2018-Jan-23 14:13N 14°24' W 060°55'2 7.7
2018-Jan-23 14:00N 14°25' W 060°54'2 3.3
2018-Jan-23 13:30N 14°27' W 060°54'1 0.0
2018-Jan-21 23:45N 14°28' W 060°53'0 0.0
2018-Jan-21 23:30N 14°28' W 060°53'0 0.0
2018-Jan-21 23:00N 14°28' W 060°53'0 0.0
2018-Jan-21 22:30N 14°28' W 060°53'1 1.2
2018-Jan-21 21:25N 14°26' W 060°53'0 0.2
2018-Jan-21 20:59N 14°27' W 060°53'1 3.0
2018-Jan-21 20:30N 14°28' W 060°52'0 0.6
2018-Jan-21 19:55N 14°28' W 060°52'2 4.3
2018-Jan-21 19:30N 14°27' W 060°54'1 2.6
2018-Jan-21 19:00N 14°26' W 060°55'  

Dump ship's entire track history